NCAR-RAP Real-Time Weather Data

Output produced by METARs form (30 May 2016  04:46 UTC)
found at http://weather.rap.ucar.edu/surface/
 
Conditions at: K4O4 observed 30 May 2016  04:35 UTC
Temperature: 18.0°C (64°F)
Dewpoint: 17.0°C (63°F) [RH = 94%]
Pressure (altimeter): 30.11 inches Hg (1019.7 mb)
Winds: calm
Visibility: 10 or more miles (16+ km)
Ceiling: 5500 feet AGL
Clouds: scattered clouds at 800 feet AGL
scattered clouds at 1700 feet AGL
broken clouds at 5500 feet AGL
Present Weather: automated observation with no human augmentation;
there may or may not be significant weather present at this time
K4O4 300435Z AUTO 00000KT 10SM SCT008 SCT017 BKN055 18/17 A3011 RMK AO2 P0004